Time;durP1;ratioP1;P1;durP2;ratioP2;P2;SDS_P1;SDS_P2;PMS_P1;PMS_P2;Temp;Humidity;BMP_temperature;BMP_pressure;BME280_temperature;BME280_humidity;BME280_pressure;Samples;Min_cycle;Max_cycle;Signal;HPM_P1;HPM_P2
2022/12/20 00:00:44;;;;;;;17.97;14.87;;;;;;;3.52;100.00;97278.25;5005434;28;20233;-64
2022/12/20 00:03:10;;;;;;;16.43;14.63;;;;;;;3.35;100.00;97276.69;4991390;28;20614;-64
2022/12/20 00:05:37;;;;;;;18.80;14.43;;;;;;;3.44;100.00;97267.94;5008957;28;20179;-64
2022/12/20 00:08:02;;;;;;;18.17;13.97;;;;;;;3.44;100.00;97267.13;5013130;28;20180;-64
2022/12/20 00:10:28;;;;;;;18.50;14.53;;;;;;;3.48;100.00;97261.44;5014569;28;20219;-64
2022/12/20 00:12:53;;;;;;;17.77;14.67;;;;;;;3.52;100.00;97264.47;5013420;28;20215;-63
2022/12/20 00:15:19;;;;;;;20.83;15.90;;;;;;;3.53;100.00;97259.13;5011044;28;20214;-63
2022/12/20 00:17:44;;;;;;;20.50;15.53;;;;;;;3.53;100.00;97253.94;5013011;28;20685;-64
2022/12/20 00:20:10;;;;;;;21.57;15.93;;;;;;;3.42;100.00;97249.16;5011267;28;20253;-64
2022/12/20 00:22:36;;;;;;;20.67;16.07;;;;;;;3.40;100.00;97251.09;4996041;28;20184;-63
2022/12/20 00:25:02;;;;;;;17.60;14.40;;;;;;;3.41;100.00;97244.13;5002923;28;20286;-64
2022/12/20 00:27:28;;;;;;;19.93;15.97;;;;;;;3.45;100.00;97235.06;5012590;28;20237;-64
2022/12/20 00:29:54;;;;;;;21.73;17.53;;;;;;;3.28;100.00;97227.38;5012330;28;20207;-64
2022/12/20 00:32:19;;;;;;;22.47;17.43;;;;;;;3.15;100.00;97229.69;5010529;28;20245;-64
2022/12/20 00:34:44;;;;;;;21.93;17.23;;;;;;;3.12;100.00;97227.44;5010911;28;20199;-64
2022/12/20 00:37:10;;;;;;;24.47;17.90;;;;;;;3.10;100.00;97241.53;5012595;28;20179;-64
2022/12/20 00:39:35;;;;;;;22.87;19.50;;;;;;;2.94;100.00;97237.22;5012833;28;20219;-64
2022/12/20 00:42:01;;;;;;;23.30;17.90;;;;;;;2.91;100.00;97238.38;5012335;28;20183;-64
2022/12/20 00:44:27;;;;;;;26.50;19.37;;;;;;;2.94;100.00;97226.88;5012358;28;20261;-63
2022/12/20 00:46:52;;;;;;;23.47;18.37;;;;;;;2.84;100.00;97227.06;5012693;28;20207;-63
2022/12/20 00:49:18;;;;;;;26.47;19.80;;;;;;;2.81;100.00;97230.00;5010497;28;20227;-64
2022/12/20 00:51:43;;;;;;;27.97;20.17;;;;;;;2.62;100.00;97235.53;4991196;28;20176;-64
2022/12/20 00:54:09;;;;;;;26.00;19.20;;;;;;;2.78;100.00;97229.53;5010638;28;20195;-64
2022/12/20 00:56:34;;;;;;;24.97;19.67;;;;;;;2.77;100.00;97244.25;5006281;28;20578;-64
2022/12/20 00:58:59;;;;;;;25.30;18.87;;;;;;;2.80;100.00;97230.16;5011849;28;20215;-63
2022/12/20 01:01:29;;;;;;;23.30;17.67;;;;;;;2.87;100.00;97223.34;5011874;28;20195;-63
2022/12/20 01:03:55;;;;;;;22.80;17.93;;;;;;;2.94;100.00;97224.28;5003815;28;20191;-64
2022/12/20 01:06:22;;;;;;;23.30;17.97;;;;;;;2.90;100.00;97231.56;5012402;28;20180;-64
2022/12/20 01:08:47;;;;;;;26.50;18.47;;;;;;;2.87;100.00;97226.72;5012480;28;20203;-64
2022/12/20 01:11:15;;;;;;;24.70;19.63;;;;;;;2.84;100.00;97234.03;5012247;28;20177;-65
2022/12/20 01:13:44;;;;;;;25.60;19.17;;;;;;;2.86;100.00;97250.19;5011753;28;20211;-67
2022/12/20 01:16:40;;;;;;;21.53;18.17;;;;;;;2.77;100.00;97240.84;5012272;28;20175;-64
2022/12/20 01:19:08;;;;;;;25.50;19.23;;;;;;;2.86;100.00;97237.25;5003045;28;20218;-65
2022/12/20 01:21:34;;;;;;;24.83;19.70;;;;;;;2.90;100.00;97248.88;5012477;28;20668;-64
2022/12/20 01:23:59;;;;;;;23.77;18.63;;;;;;;2.84;100.00;97249.56;5010723;28;20266;-63
2022/12/20 01:26:27;;;;;;;26.23;19.23;;;;;;;2.76;100.00;97249.56;5018276;28;20270;-64
2022/12/20 01:28:55;;;;;;;25.13;19.43;;;;;;;2.80;100.00;97243.09;5012162;28;20545;-65
2022/12/20 01:31:22;;;;;;;27.10;20.30;;;;;;;2.79;100.00;97242.28;5012158;28;20184;-64
2022/12/20 01:33:49;;;;;;;24.80;19.03;;;;;;;2.79;100.00;97249.22;5018746;28;20239;-66
2022/12/20 01:36:18;;;;;;;26.17;19.30;;;;;;;2.69;100.00;97246.84;5031874;28;20526;-64
2022/12/20 01:38:44;;;;;;;27.20;19.17;;;;;;;2.59;100.00;97240.25;4996062;28;20195;-64
2022/12/20 01:41:17;;;;;;;26.73;20.60;;;;;;;2.82;100.00;97239.38;5012273;28;20198;-62
2022/12/20 01:43:52;;;;;;;26.57;19.43;;;;;;;2.73;100.00;97232.59;5011871;28;20176;-65
2022/12/20 01:46:20;;;;;;;25.97;19.53;;;;;;;2.66;100.00;97228.25;4994487;28;20188;-64
2022/12/20 01:48:52;;;;;;;23.27;19.50;;;;;;;2.70;100.00;97229.53;5030334;28;20170;-64
2022/12/20 01:51:18;;;;;;;24.40;18.87;;;;;;;2.71;100.00;97229.38;5035669;28;20171;-65
2022/12/20 01:53:46;;;;;;;25.97;19.70;;;;;;;2.70;100.00;97232.94;5021913;28;20282;-64
2022/12/20 01:56:11;;;;;;;27.73;20.50;;;;;;;2.57;100.00;97231.81;5025326;28;20175;-65
2022/12/20 01:58:38;;;;;;;26.17;19.80;;;;;;;2.57;100.00;97227.47;5027082;28;20218;-64
2022/12/20 02:01:05;;;;;;;29.37;19.83;;;;;;;2.68;100.00;97221.94;5015421;28;20576;-64
2022/12/20 02:03:31;;;;;;;26.77;20.40;;;;;;;2.52;100.00;97203.88;5015428;28;20179;-64
2022/12/20 02:05:57;;;;;;;24.90;20.27;;;;;;;2.51;100.00;97210.81;5023142;28;20179;-63
2022/12/20 02:08:23;;;;;;;25.73;20.37;;;;;;;2.67;100.00;97206.59;5015552;28;20200;-64
2022/12/20 02:10:54;;;;;;;27.63;20.67;;;;;;;2.62;100.00;97201.91;5034837;28;20197;-64
2022/12/20 02:13:59;;;;;;;25.03;20.63;;;;;;;2.45;100.00;97197.75;5025399;28;20219;-63
2022/12/20 02:16:28;;;;;;;24.80;19.00;;;;;;;2.43;100.00;97194.53;5014613;28;20210;-63
2022/12/20 02:19:06;;;;;;;27.57;19.87;;;;;;;2.46;100.00;97204.53;5015172;28;20202;-63
2022/12/20 02:21:54;;;;;;;24.70;20.60;;;;;;;2.40;100.00;97198.22;5015330;28;20175;-64
2022/12/20 02:24:40;;;;;;;27.27;19.53;;;;;;;2.41;100.00;97189.50;5033999;28;20191;-64
2022/12/20 02:27:24;;;;;;;24.77;19.60;;;;;;;2.49;100.00;97188.69;5034377;28;20773;-64
2022/12/20 02:30:13;;;;;;;23.07;18.70;;;;;;;2.40;100.00;97192.25;5010821;28;20207;-64
2022/12/20 02:32:48;;;;;;;27.27;19.33;;;;;;;2.42;100.00;97188.53;5007594;28;20236;-64
2022/12/20 02:35:20;;;;;;;23.40;19.20;;;;;;;2.50;100.00;97179.97;5013367;28;20280;-64
2022/12/20 02:37:55;;;;;;;29.30;20.77;;;;;;;2.44;100.00;97172.88;5014598;28;20187;-64
2022/12/20 02:40:42;;;;;;;24.50;19.63;;;;;;;2.54;100.00;97177.84;5014485;28;20198;-64
2022/12/20 02:45:14;;;;;;;25.33;19.50;;;;;;;2.56;100.00;97188.84;5014002;28;20175;-64
2022/12/20 02:45:58;;;;;;;22.67;18.63;;;;;;;2.69;100.00;97179.56;5014568;28;20741;-64
2022/12/20 02:48:29;;;;;;;23.77;17.77;;;;;;;2.69;100.00;97189.91;5014282;28;20207;-65
2022/12/20 02:50:59;;;;;;;21.63;18.60;;;;;;;2.71;100.00;97182.00;5014295;28;20171;-64
2022/12/20 02:53:25;;;;;;;23.00;17.33;;;;;;;2.87;100.00;97180.16;5001075;28;20199;-64
2022/12/20 02:56:03;;;;;;;18.80;16.00;;;;;;;2.92;100.00;97180.44;5014717;28;20310;-64
2022/12/20 02:58:42;;;;;;;19.47;16.00;;;;;;;3.13;100.00;97171.28;5016989;28;20509;-65
2022/12/20 03:01:27;;;;;;;16.23;13.90;;;;;;;3.30;100.00;97159.84;5013202;28;20324;-64
2022/12/20 03:03:54;;;;;;;15.47;12.07;;;;;;;3.47;100.00;97158.75;5009484;28;20306;-65
2022/12/20 03:06:20;;;;;;;13.80;11.83;;;;;;;3.65;100.00;97151.50;5014344;28;20176;-65
2022/12/20 03:08:46;;;;;;;13.10;11.80;;;;;;;3.83;100.00;97153.78;5013608;28;20187;-65
2022/12/20 03:11:12;;;;;;;13.93;12.53;;;;;;;3.92;100.00;97151.94;5014180;28;20179;-65
2022/12/20 03:13:38;;;;;;;14.23;10.13;;;;;;;3.99;100.00;97151.06;5012046;28;20207;-64
2022/12/20 03:16:04;;;;;;;13.27;11.80;;;;;;;4.06;100.00;97145.97;5011503;28;20168;-65
2022/12/20 03:18:29;;;;;;;12.13;10.70;;;;;;;4.09;100.00;97148.19;4993193;28;20227;-65
2022/12/20 03:20:55;;;;;;;12.90;10.80;;;;;;;4.09;100.00;97148.19;5009805;28;20183;-65
2022/12/20 03:23:20;;;;;;;11.07;9.77;;;;;;;4.18;100.00;97144.53;5013356;28;20185;-65
2022/12/20 03:25:46;;;;;;;12.70;10.87;;;;;;;4.22;100.00;97143.22;5013937;28;20180;-66
2022/12/20 03:28:12;;;;;;;13.13;11.00;;;;;;;4.22;100.00;97145.00;5013477;28;20563;-65
2022/12/20 03:30:37;;;;;;;12.23;10.87;;;;;;;4.33;100.00;97123.81;4996032;28;20226;-65
2022/12/20 03:33:03;;;;;;;10.20;9.20;;;;;;;4.32;100.00;97128.19;4991012;28;20227;-65
2022/12/20 03:35:28;;;;;;;11.27;9.77;;;;;;;4.45;100.00;97137.97;5011456;28;20263;-66
2022/12/20 03:37:55;;;;;;;10.00;9.00;;;;;;;4.50;100.00;97133.84;5013550;28;20600;-66
2022/12/20 03:40:21;;;;;;;10.93;9.17;;;;;;;4.54;100.00;97118.69;5013108;28;20238;-64
2022/12/20 03:42:46;;;;;;;10.53;9.40;;;;;;;4.54;100.00;97135.09;5013507;28;20167;-65
2022/12/20 03:45:12;;;;;;;10.73;8.73;;;;;;;4.55;100.00;97134.09;5013459;28;20568;-65
2022/12/20 03:47:37;;;;;;;11.97;10.00;;;;;;;4.58;100.00;97141.50;5013745;28;20184;-65
2022/12/20 03:50:05;;;;;;;9.67;8.73;;;;;;;4.58;100.00;97144.09;5013432;28;20199;-64
2022/12/20 03:52:30;;;;;;;9.30;8.40;;;;;;;4.58;100.00;97127.72;5012928;28;20247;-64
2022/12/20 03:54:56;;;;;;;11.03;9.03;;;;;;;4.59;100.00;97129.34;4998062;28;20256;-64
2022/12/20 03:57:21;;;;;;;9.80;8.80;;;;;;;4.62;100.00;97126.41;5008833;28;20262;-65
2022/12/20 03:59:47;;;;;;;13.53;8.70;;;;;;;4.59;100.00;97131.94;5003127;28;20208;-64
2022/12/20 04:02:18;;;;;;;10.03;9.03;;;;;;;4.45;100.00;97132.75;4993572;28;20187;-64
2022/12/20 04:04:44;;;;;;;9.63;8.63;;;;;;;4.50;100.00;97131.25;4996177;28;20188;-64
2022/12/20 04:07:11;;;;;;;10.77;9.67;;;;;;;4.45;100.00;97127.56;5013388;28;20214;-64
2022/12/20 04:09:36;;;;;;;12.07;10.63;;;;;;;4.41;100.00;97126.31;5012914;28;20716;-65
2022/12/20 04:12:02;;;;;;;12.57;10.60;;;;;;;4.24;100.00;97115.28;4992342;28;20214;-64
2022/12/20 04:14:27;;;;;;;11.00;9.90;;;;;;;4.31;100.00;97111.00;4994732;28;20226;-65
2022/12/20 04:16:53;;;;;;;14.60;10.47;;;;;;;4.35;100.00;97104.47;5012591;28;20194;-66
2022/12/20 04:19:18;;;;;;;11.57;10.37;;;;;;;4.30;100.00;97100.81;5013173;28;20201;-65
2022/12/20 04:21:44;;;;;;;13.47;10.97;;;;;;;4.25;100.00;97100.53;5007965;28;20211;-66
2022/12/20 04:24:09;;;;;;;12.33;10.53;;;;;;;4.27;100.00;97089.00;4994676;28;20207;-64
2022/12/20 04:26:35;;;;;;;11.83;10.40;;;;;;;4.28;100.00;97088.03;4993237;28;20191;-64
2022/12/20 04:29:00;;;;;;;12.27;9.87;;;;;;;4.41;100.00;97097.75;5008364;28;20218;-64
2022/12/20 04:31:26;;;;;;;11.87;10.03;;;;;;;4.35;100.00;97103.66;5012330;28;20221;-64
2022/12/20 04:33:51;;;;;;;11.43;10.23;;;;;;;4.46;100.00;97098.03;5003962;28;20227;-64
2022/12/20 04:36:17;;;;;;;10.83;9.40;;;;;;;4.50;100.00;97099.28;5011802;28;20617;-64
2022/12/20 04:38:43;;;;;;;10.37;9.23;;;;;;;4.61;100.00;97111.81;5012684;28;20241;-64
2022/12/20 04:41:08;;;;;;;10.03;8.33;;;;;;;4.65;100.00;97115.66;5012279;28;20187;-66
2022/12/20 04:43:33;;;;;;;10.67;9.10;;;;;;;4.60;100.00;97103.22;5011666;28;20171;-65
2022/12/20 04:45:59;;;;;;;11.30;8.53;;;;;;;4.56;100.00;97107.16;5012570;28;20688;-65
2022/12/20 04:48:26;;;;;;;9.73;8.70;;;;;;;4.69;100.00;97090.13;5012364;28;20604;-65
2022/12/20 04:50:53;;;;;;;9.57;8.63;;;;;;;4.77;100.00;97088.25;5010041;28;20219;-64
2022/12/20 04:56:02;;;;;;;9.37;8.40;;;;;;;4.89;100.00;97088.56;5012133;28;20245;-65
2022/12/20 04:58:28;;;;;;;11.07;8.30;;;;;;;4.91;100.00;97079.59;5011755;28;20199;-65
2022/12/20 05:00:54;;;;;;;9.77;8.07;;;;;;;4.95;100.00;97091.25;4986842;28;20191;-66
2022/12/20 05:03:21;;;;;;;8.40;7.60;;;;;;;5.00;100.00;97081.09;5010918;28;20194;-66
2022/12/20 05:05:46;;;;;;;9.47;8.57;;;;;;;5.03;100.00;97079.91;5007345;28;20222;-65
2022/12/20 05:08:12;;;;;;;10.93;7.63;;;;;;;5.09;100.00;97089.56;5012048;28;20179;-65
2022/12/20 05:10:37;;;;;;;9.97;9.00;;;;;;;5.08;100.00;97080.16;5012190;28;20219;-65
2022/12/20 05:13:03;;;;;;;9.70;8.80;;;;;;;5.08;100.00;97077.56;5009974;28;20183;-65
2022/12/20 05:15:28;;;;;;;9.73;8.83;;;;;;;5.08;100.00;97079.34;5011863;28;20656;-65
2022/12/20 05:17:58;;;;;;;9.83;8.83;;;;;;;5.13;100.00;97070.03;5012157;28;20190;-65
2022/12/20 05:20:27;;;;;;;9.83;8.90;;;;;;;5.16;100.00;97071.47;5007215;28;20199;-67
2022/12/20 05:26:16;;;;;;;9.60;8.60;;;;;;;5.13;100.00;97070.03;5015770;28;20246;-65
2022/12/20 05:28:34;;;;;;;10.37;9.27;;;;;;;5.17;100.00;97062.69;5015729;28;20187;-65
2022/12/20 05:31:00;;;;;;;9.40;8.60;;;;;;;5.19;100.00;97061.50;5010685;28;20195;-65
2022/12/20 05:33:26;;;;;;;8.57;7.77;;;;;;;5.27;100.00;97047.56;5013720;28;20289;-66
2022/12/20 05:35:52;;;;;;;8.73;7.90;;;;;;;5.25;100.00;97049.53;5013825;28;20188;-66
2022/12/20 05:38:18;;;;;;;8.20;7.40;;;;;;;5.32;100.00;97053.81;5015931;28;20245;-66
2022/12/20 05:40:45;;;;;;;7.83;7.13;;;;;;;5.35;100.00;97063.06;5005899;28;20674;-65
2022/12/20 05:43:11;;;;;;;7.63;6.93;;;;;;;5.36;100.00;97057.66;5014880;28;20186;-65
2022/12/20 05:45:37;;;;;;;7.33;6.63;;;;;;;5.38;100.00;97054.88;5015537;28;20183;-65
2022/12/20 05:48:02;;;;;;;7.37;6.50;;;;;;;5.41;100.00;97050.09;5014130;28;20263;-63
2022/12/20 05:50:28;;;;;;;7.07;6.40;;;;;;;5.41;100.00;97044.91;4998033;28;20215;-65
2022/12/20 05:52:53;;;;;;;7.43;6.73;;;;;;;5.47;100.00;97038.13;4999136;28;20242;-66
2022/12/20 05:55:18;;;;;;;8.07;7.33;;;;;;;5.47;100.00;97032.94;4996357;28;20211;-65
2022/12/20 05:57:44;;;;;;;8.33;7.50;;;;;;;5.45;100.00;97032.34;5009348;28;20564;-65
2022/12/20 06:00:11;;;;;;;8.70;7.37;;;;;;;5.47;100.00;97027.75;5010650;28;20341;-66
2022/12/20 06:02:36;;;;;;;7.63;6.73;;;;;;;5.38;100.00;97042.69;5008374;28;20555;-64
2022/12/20 06:05:01;;;;;;;7.40;6.70;;;;;;;5.35;100.00;97027.44;5015074;28;20190;-65
2022/12/20 06:07:30;;;;;;;7.63;6.93;;;;;;;5.42;100.00;97032.72;5014697;28;20198;-66
2022/12/20 06:09:56;;;;;;;8.73;7.17;;;;;;;5.31;100.00;97036.63;5014107;28;20207;-65
2022/12/20 06:12:21;;;;;;;8.43;7.63;;;;;;;5.30;100.00;97032.41;5015286;28;20283;-65
2022/12/20 06:14:47;;;;;;;18.43;8.17;;;;;;;5.25;100.00;97028.75;5015490;28;20298;-64
2022/12/20 06:17:12;;;;;;;10.23;8.27;;;;;;;5.14;100.00;97035.25;4999178;28;20168;-66
2022/12/20 06:19:41;;;;;;;11.73;7.83;;;;;;;5.03;100.00;97044.34;5014177;28;20208;-65
2022/12/20 06:22:07;;;;;;;9.50;7.50;;;;;;;5.09;100.00;97042.81;4994499;28;20619;-66
2022/12/20 06:24:33;;;;;;;7.63;6.93;;;;;;;5.09;100.00;97050.59;4995857;28;20179;-64
2022/12/20 06:26:59;;;;;;;8.13;7.33;;;;;;;5.11;100.00;97043.44;5008946;28;20184;-66
2022/12/20 06:29:24;;;;;;;8.67;7.80;;;;;;;5.06;100.00;97037.19;5014031;28;20342;-65
2022/12/20 06:31:50;;;;;;;11.50;8.30;;;;;;;4.98;100.00;97043.31;4996005;28;20688;-66
2022/12/20 06:34:16;;;;;;;10.77;8.80;;;;;;;5.08;100.00;97043.00;5011464;28;20239;-66
2022/12/20 06:36:42;;;;;;;9.70;8.00;;;;;;;5.06;100.00;97045.78;5015943;28;20202;-65
2022/12/20 06:39:08;;;;;;;9.13;8.23;;;;;;;5.02;100.00;97052.31;5024499;28;20715;-65
2022/12/20 06:41:34;;;;;;;7.93;6.90;;;;;;;5.09;100.00;97044.59;5017638;28;20246;-63
2022/12/20 06:43:59;;;;;;;8.63;7.87;;;;;;;5.12;100.00;97050.25;5015355;28;20168;-65
2022/12/20 06:46:26;;;;;;;11.63;7.37;;;;;;;5.10;100.00;97059.22;5015136;28;20651;-65
2022/12/20 06:48:51;;;;;;;8.17;6.90;;;;;;;5.17;100.00;97058.28;5021666;28;20233;-63
2022/12/20 06:51:19;;;;;;;10.13;8.30;;;;;;;5.29;100.00;97058.59;5022159;28;20625;-66
2022/12/20 06:53:44;;;;;;;8.20;7.40;;;;;;;5.28;100.00;97059.59;5014710;28;20199;-65
2022/12/20 06:56:40;;;;;;;8.10;7.17;;;;;;;5.20;100.00;97060.50;5014434;28;20187;-65
2022/12/20 06:59:06;;;;;;;10.03;8.10;;;;;;;5.23;100.00;97059.34;5014785;28;20278;-65
2022/12/20 07:01:32;;;;;;;9.37;8.43;;;;;;;5.31;100.00;97054.00;5014083;28;20204;-65
2022/12/20 07:03:58;;;;;;;11.13;8.67;;;;;;;5.22;100.00;97053.34;5003657;23;20264;-66
2022/12/20 07:06:23;;;;;;;7.83;7.13;;;;;;;5.25;100.00;97041.75;4975525;28;20211;-66
2022/12/20 07:08:49;;;;;;;9.07;8.17;;;;;;;5.22;100.00;97044.72;4975278;28;20284;-65
2022/12/20 07:11:14;;;;;;;8.60;7.80;;;;;;;5.27;100.00;97043.19;4975136;28;20204;-66
2022/12/20 07:13:39;;;;;;;10.63;7.80;;;;;;;5.33;100.00;97044.22;4974817;28;20197;-66
2022/12/20 07:16:06;;;;;;;8.60;7.77;;;;;;;5.38;100.00;97044.47;4957265;28;20169;-67
2022/12/20 07:18:34;;;;;;;7.97;7.17;;;;;;;5.43;100.00;97042.91;4974438;28;20242;-67
2022/12/20 07:21:00;;;;;;;7.40;6.73;;;;;;;5.42;100.00;97048.31;4974052;28;20198;-65
2022/12/20 07:23:26;;;;;;;7.43;6.73;;;;;;;5.41;100.00;97050.09;4974156;28;20176;-68
2022/12/20 07:25:55;;;;;;;7.30;6.60;;;;;;;5.43;100.00;97036.91;4974563;28;20180;-62
2022/12/20 07:28:22;;;;;;;7.27;6.67;;;;;;;5.49;100.00;97038.78;4974802;28;20180;-62
2022/12/20 07:30:47;;;;;;;7.37;6.67;;;;;;;5.50;100.00;97035.19;4963139;28;20682;-62
2022/12/20 07:33:13;;;;;;;9.97;7.17;;;;;;;5.49;100.00;97046.56;4974371;28;20196;-62
2022/12/20 07:35:39;;;;;;;8.20;7.47;;;;;;;5.41;100.00;97055.28;4974858;28;20185;-63
2022/12/20 07:38:04;;;;;;;8.10;7.30;;;;;;;5.39;100.00;97052.09;4974354;28;20332;-62
2022/12/20 07:40:30;;;;;;;7.87;7.00;;;;;;;5.55;100.00;97035.41;4974545;28;20201;-62
2022/12/20 07:42:55;;;;;;;8.00;7.30;;;;;;;5.50;100.00;97042.19;4974330;28;20224;-62
2022/12/20 07:45:21;;;;;;;8.50;7.67;;;;;;;5.54;100.00;97044.19;4973396;28;20221;-62
2022/12/20 07:47:46;;;;;;;9.03;8.13;;;;;;;5.67;100.00;97031.31;4974353;28;20172;-62
2022/12/20 07:50:11;;;;;;;8.23;7.43;;;;;;;5.56;100.00;97033.63;4974128;28;20196;-63
2022/12/20 07:52:40;;;;;;;8.90;7.90;;;;;;;5.60;100.00;97040.84;4974385;28;20654;-63
2022/12/20 07:55:07;;;;;;;8.90;8.10;;;;;;;5.70;100.00;97043.91;4973303;28;20299;-62
2022/12/20 07:58:03;;;;;;;8.37;7.67;;;;;;;5.63;100.00;97037.88;4960996;28;20207;-63
2022/12/20 08:00:30;;;;;;;8.57;7.70;;;;;;;5.72;100.00;97039.34;4972380;28;20259;-63
2022/12/20 08:02:58;;;;;;;9.30;8.40;;;;;;;5.70;100.00;97045.72;4972018;28;20236;-63
2022/12/20 08:05:24;;;;;;;9.03;7.93;;;;;;;5.74;100.00;97047.75;4961418;28;20709;-63
2022/12/20 08:07:52;;;;;;;9.43;8.27;;;;;;;5.65;100.00;97048.88;4973939;28;20623;-65
2022/12/20 08:10:18;;;;;;;10.23;8.83;;;;;;;5.58;100.00;97053.22;4974050;28;20687;-66
2022/12/20 08:12:46;;;;;;;10.43;9.40;;;;;;;5.58;100.00;97044.63;4974272;28;20204;-65
2022/12/20 08:15:11;;;;;;;10.47;9.47;;;;;;;5.71;100.00;97040.34;4956847;28;20555;-64
2022/12/20 08:17:37;;;;;;;10.17;8.67;;;;;;;5.70;100.00;97040.50;4973835;28;20176;-64
2022/12/20 08:20:04;;;;;;;10.23;8.87;;;;;;;5.64;100.00;97041.28;4974076;28;20239;-63
2022/12/20 08:22:30;;;;;;;9.43;8.60;;;;;;;5.73;100.00;97035.75;4974152;28;20181;-63
2022/12/20 08:24:55;;;;;;;9.27;7.87;;;;;;;5.71;100.00;97036.94;4973589;28;20514;-63
2022/12/20 08:27:21;;;;;;;8.93;8.07;;;;;;;5.88;100.00;97038.28;4973716;28;20659;-62
2022/12/20 08:29:46;;;;;;;9.00;7.60;;;;;;;5.86;100.00;97037.63;4973995;28;20200;-62
2022/12/20 08:32:13;;;;;;;9.27;8.37;;;;;;;5.86;100.00;97033.22;4973688;28;20172;-62
2022/12/20 08:34:38;;;;;;;8.80;7.90;;;;;;;5.84;100.00;97024.03;4973846;28;20192;-62
2022/12/20 08:37:04;;;;;;;11.40;8.63;;;;;;;5.94;100.00;97018.50;4973370;28;20248;-62
2022/12/20 08:39:29;;;;;;;8.40;7.13;;;;;;;5.96;100.00;97012.13;4973501;28;20197;-63
2022/12/20 08:41:55;;;;;;;9.80;8.83;;;;;;;5.92;100.00;97012.69;4973941;28;20172;-63
2022/12/20 08:44:20;;;;;;;9.63;8.63;;;;;;;6.02;100.00;97000.94;4973099;28;20212;-63
2022/12/20 08:46:46;;;;;;;10.23;9.33;;;;;;;5.97;100.00;97007.69;4972417;28;20177;-64
2022/12/20 08:49:12;;;;;;;10.20;8.57;;;;;;;5.94;100.00;96998.50;4973622;28;20295;-65
2022/12/20 08:51:38;;;;;;;9.30;8.40;;;;;;;6.09;100.00;97001.78;4970489;28;20254;-67
2022/12/20 08:54:03;;;;;;;9.53;8.57;;;;;;;6.11;100.00;97004.19;4971152;28;20264;-61
2022/12/20 08:56:29;;;;;;;8.80;7.90;;;;;;;6.18;100.00;96997.22;4975669;28;20203;-62
2022/12/20 08:58:54;;;;;;;8.90;8.10;;;;;;;6.28;100.00;96989.84;4979795;28;20210;-62
2022/12/20 09:01:21;;;;;;;8.73;7.23;;;;;;;6.39;100.00;96994.50;4978947;28;20184;-64
2022/12/20 09:03:47;;;;;;;10.77;8.27;;;;;;;8.76;100.00;96991.69;4966701;28;20252;-62
2022/12/20 09:06:16;;;;;;;7.23;6.63;;;;;;;7.84;100.00;97003.25;4961108;28;20166;-62
2022/12/20 09:08:41;;;;;;;7.60;6.97;;;;;;;7.38;100.00;96997.28;4960592;28;20161;-61
2022/12/20 09:11:12;;;;;;;12.33;11.43;;;;;;;6.95;100.00;97010.69;4965466;28;20260;-61
2022/12/20 09:13:40;;;;;;;16.37;15.13;;;;;;;6.72;100.00;96999.00;4979534;28;20546;-63
2022/12/20 09:16:07;;;;;;;19.47;18.13;;;;;;;6.62;100.00;97004.59;4979399;28;20181;-65
2022/12/20 09:18:32;;;;;;;22.63;21.13;;;;;;;6.41;100.00;97005.50;4976952;28;20565;-63
2022/12/20 09:21:02;;;;;;;15.53;14.33;;;;;;;6.38;100.00;96995.50;4979582;28;20172;-62
2022/12/20 09:23:28;;;;;;;14.30;12.87;;;;;;;6.44;100.00;96999.13;4979909;28;20173;-62
2022/12/20 09:25:55;;;;;;;13.33;12.23;;;;;;;6.42;100.00;96995.91;4979698;28;20544;-65
2022/12/20 09:28:21;;;;;;;14.97;13.67;;;;;;;6.41;100.00;96991.72;4979563;28;20192;-63
2022/12/20 09:30:47;;;;;;;17.60;16.20;;;;;;;6.43;100.00;96993.09;4979017;28;20211;-63
2022/12/20 09:33:12;;;;;;;21.03;19.47;;;;;;;6.35;100.00;96995.09;4979336;28;20560;-63
2022/12/20 09:35:45;;;;;;;14.37;13.27;;;;;;;6.40;100.00;96990.09;4979441;28;20267;-64
2022/12/20 09:38:11;;;;;;;20.77;19.17;;;;;;;6.54;100.00;96991.72;4979415;28;20232;-64
2022/12/20 09:40:37;;;;;;;22.13;20.73;;;;;;;6.49;100.00;96987.13;4979192;28;20204;-62
2022/12/20 09:43:04;;;;;;;18.40;17.13;;;;;;;6.62;100.00;96984.56;4979717;28;20183;-63
2022/12/20 09:45:34;;;;;;;19.47;18.03;;;;;;;6.78;100.00;96983.41;4979760;28;20169;-64
2022/12/20 09:48:00;;;;;;;18.07;16.77;;;;;;;6.77;100.00;96980.97;4979597;28;20267;-64
2022/12/20 09:50:46;;;;;;;20.93;19.43;;;;;;;6.92;100.00;96987.63;4979563;28;20645;-64
2022/12/20 09:54:03;;;;;;;20.13;18.63;;;;;;;6.91;100.00;96972.19;4977731;28;20508;-64
2022/12/20 09:56:56;;;;;;;14.80;13.73;;;;;;;7.03;100.00;96954.94;4950026;28;20197;-64
2022/12/20 09:59:23;;;;;;;17.53;16.20;;;;;;;7.01;100.00;96959.56;4980051;28;20196;-64
2022/12/20 10:01:49;;;;;;;10.63;9.73;;;;;;;7.14;100.00;96958.75;4970969;28;20290;-64
2022/12/20 10:04:24;;;;;;;8.53;7.80;;;;;;;7.29;100.00;96954.16;4965989;28;20271;-64
2022/12/20 10:07:04;;;;;;;8.30;6.73;;;;;;;7.18;100.00;96960.78;4959125;28;20180;-64
2022/12/20 10:09:51;;;;;;;9.13;7.47;;;;;;;7.24;100.00;96965.19;4956982;28;20295;-64
2022/12/20 10:12:40;;;;;;;8.77;7.97;;;;;;;7.18;100.00;96958.19;4972301;28;20193;-64
2022/12/20 10:15:26;;;;;;;9.70;6.97;;;;;;;7.19;100.00;96956.38;4990458;28;20282;-64
2022/12/20 10:18:17;;;;;;;7.97;7.27;;;;;;;7.29;100.00;96954.16;4995722;28;20179;-63
2022/12/20 10:21:15;;;;;;;8.97;8.17;;;;;;;7.37;100.00;96954.75;4992468;28;20205;-64
2022/12/20 10:24:09;;;;;;;8.83;8.13;;;;;;;7.50;100.00;96952.13;4987895;28;20658;-64
2022/12/20 10:26:35;;;;;;;7.80;7.20;;;;;;;7.51;100.00;96955.56;4973700;28;20602;-64
2022/12/20 10:29:00;;;;;;;15.37;14.37;;;;;;;7.54;99.97;96944.69;4994951;28;20283;-64
2022/12/20 10:31:26;;;;;;;9.00;8.30;;;;;;;7.43;100.00;96932.28;4990190;28;20499;-64
2022/12/20 10:33:52;;;;;;;9.70;8.80;;;;;;;7.52;99.73;96923.25;4994983;28;20224;-64
2022/12/20 10:36:36;;;;;;;9.53;8.83;;;;;;;7.46;100.00;96926.69;4994737;28;20176;-64
2022/12/20 10:39:08;;;;;;;9.00;8.20;;;;;;;7.53;100.00;96920.44;4994248;28;20207;-64
2022/12/20 10:41:53;;;;;;;8.77;7.97;;;;;;;7.51;99.51;96917.25;4957581;28;20585;-64
2022/12/20 10:44:19;;;;;;;8.47;7.67;;;;;;;7.39;100.00;96913.66;4956108;28;20276;-64
2022/12/20 10:46:48;;;;;;;8.40;7.70;;;;;;;7.38;100.00;96916.44;4956527;28;20269;-64
2022/12/20 10:49:37;;;;;;;9.80;8.90;;;;;;;7.44;100.00;96910.41;4976664;28;20235;-64
2022/12/20 10:52:10;;;;;;;9.43;8.47;;;;;;;7.39;99.83;96908.44;4961877;28;20189;-64
2022/12/20 10:54:38;;;;;;;10.27;9.30;;;;;;;7.25;100.00;96912.03;4967654;28;20208;-64
2022/12/20 10:57:24;;;;;;;10.53;9.23;;;;;;;7.27;100.00;96907.44;4994259;28;20195;-64
2022/12/20 10:59:53;;;;;;;10.07;8.73;;;;;;;7.28;100.00;96905.63;4983010;28;20209;-64
2022/12/20 11:02:31;;;;;;;13.80;12.70;;;;;;;7.28;100.00;96897.81;4970667;28;20593;-64
2022/12/20 11:04:59;;;;;;;10.27;9.27;;;;;;;7.28;100.00;96893.41;4983945;28;20164;-64
2022/12/20 11:07:28;;;;;;;11.33;10.23;;;;;;;7.27;100.00;96897.00;4990040;28;20258;-64
2022/12/20 11:09:59;;;;;;;9.37;8.60;;;;;;;7.29;100.00;96899.41;4993292;28;20259;-63
2022/12/20 11:12:24;;;;;;;9.10;8.33;;;;;;;7.36;100.00;96894.97;4964840;28;20172;-64
2022/12/20 11:15:10;;;;;;;8.30;7.60;;;;;;;7.52;100.00;96890.13;4976960;28;20215;-64
2022/12/20 11:17:42;;;;;;;8.70;7.90;;;;;;;7.58;99.82;96887.72;4967198;28;20667;-64
2022/12/20 11:20:33;;;;;;;6.93;6.33;;;;;;;7.65;99.05;96880.66;4954614;28;20636;-65
2022/12/20 11:23:06;;;;;;;7.20;6.50;;;;;;;7.73;99.02;96876.03;4955900;28;20174;-64
2022/12/20 11:25:43;;;;;;;7.87;7.27;;;;;;;7.69;99.03;96874.06;4981751;28;20179;-65
2022/12/20 11:28:18;;;;;;;7.37;6.77;;;;;;;7.72;98.96;96874.44;4958613;28;20216;-64
2022/12/20 11:31:05;;;;;;;7.10;6.50;;;;;;;7.71;99.35;96865.00;4979433;28;20205;-64
2022/12/20 11:33:39;;;;;;;7.00;6.50;;;;;;;7.82;98.39;96859.13;4994455;28;20183;-65
2022/12/20 11:36:22;;;;;;;8.20;7.60;;;;;;;7.98;97.13;96844.00;4996113;28;20693;-64
2022/12/20 11:39:09;;;;;;;8.80;8.20;;;;;;;8.05;96.89;96856.03;4994224;28;20237;-64
2022/12/20 11:41:55;;;;;;;8.67;7.87;;;;;;;8.01;97.01;96859.28;4992720;28;20212;-64